createdAt,value
2023-06-19T00:00:48.343Z,7.60
2023-06-19T00:01:48.334Z,7.70
2023-06-19T00:02:48.299Z,7.90
2023-06-19T00:03:48.330Z,7.40
2023-06-19T00:04:48.259Z,7.70
2023-06-19T00:05:48.272Z,7.90
2023-06-19T00:06:48.276Z,7.70
2023-06-19T00:07:48.269Z,7.90
2023-06-19T00:08:48.218Z,7.30
2023-06-19T00:09:48.241Z,8.30
2023-06-19T00:10:48.194Z,7.70
2023-06-19T00:11:48.214Z,7.80
2023-06-19T00:12:48.196Z,7.30
2023-06-19T00:13:48.192Z,9.10
2023-06-19T00:14:48.163Z,7.30
2023-06-19T00:15:48.205Z,7.70
2023-06-19T00:16:48.190Z,7.90
2023-06-19T00:17:48.223Z,8.00
2023-06-19T00:18:48.116Z,8.20
2023-06-19T00:19:54.636Z,8.30
2023-06-19T00:20:48.081Z,7.90
2023-06-19T00:21:48.092Z,6.90
2023-06-19T00:22:48.063Z,8.00
2023-06-19T00:23:48.101Z,7.80
2023-06-19T00:24:48.056Z,7.90
2023-06-19T00:25:48.089Z,6.90
2023-06-19T00:26:48.045Z,9.10
2023-06-19T00:27:48.051Z,7.70
2023-06-19T00:28:48.000Z,8.40
2023-06-19T00:29:48.050Z,8.50
2023-06-19T00:30:47.995Z,8.00
2023-06-19T00:31:48.026Z,7.70
2023-06-19T00:32:48.144Z,8.10
2023-06-19T00:33:47.973Z,10.20
2023-06-19T00:34:47.976Z,7.80
2023-06-19T00:35:47.955Z,7.60
2023-06-19T00:36:47.908Z,7.00
2023-06-19T00:37:48.009Z,9.20
2023-06-19T00:38:47.892Z,8.00
2023-06-19T00:39:47.922Z,6.50
2023-06-19T00:40:47.900Z,8.70
2023-06-19T00:41:47.894Z,8.10
2023-06-19T00:42:47.853Z,9.70
2023-06-19T00:43:47.851Z,7.30
2023-06-19T00:44:47.839Z,7.20
2023-06-19T00:45:47.905Z,7.30
2023-06-19T00:46:47.905Z,7.60
2023-06-19T00:47:47.925Z,7.90
2023-06-19T00:48:47.781Z,7.40
2023-06-19T00:49:47.786Z,8.00
2023-06-19T00:50:47.772Z,7.50
2023-06-19T00:51:47.793Z,8.70
2023-06-19T00:52:47.727Z,7.30
2023-06-19T00:53:47.757Z,8.30
2023-06-19T00:54:47.753Z,7.50
2023-06-19T00:55:47.726Z,7.60
2023-06-19T00:56:47.705Z,7.30
2023-06-19T00:57:47.770Z,8.70
2023-06-19T00:58:47.672Z,8.50
2023-06-19T00:59:47.709Z,8.90
2023-06-19T01:00:56.302Z,7.50
2023-06-19T01:01:47.738Z,8.90
2023-06-19T01:02:47.762Z,7.20
2023-06-19T01:03:47.892Z,8.50
2023-06-19T01:04:47.685Z,8.10
2023-06-19T01:05:47.631Z,7.20
2023-06-19T01:06:47.606Z,6.60
2023-06-19T01:07:47.586Z,8.40
2023-06-19T01:08:47.643Z,7.20
2023-06-19T01:09:47.558Z,9.70
2023-06-19T01:10:47.560Z,7.40
2023-06-19T01:11:47.521Z,9.60
2023-06-19T01:12:47.567Z,8.40
2023-06-19T01:13:47.508Z,7.80
2023-06-19T01:14:47.570Z,8.40
2023-06-19T01:15:47.490Z,8.10
2023-06-19T01:16:47.569Z,9.70
2023-06-19T01:17:47.490Z,7.40
2023-06-19T01:18:47.477Z,7.40
2023-06-19T01:19:47.464Z,7.60
2023-06-19T01:20:47.457Z,8.10
2023-06-19T01:21:47.434Z,7.00
2023-06-19T01:22:47.454Z,8.40
2023-06-19T01:23:47.419Z,9.20
2023-06-19T01:24:47.425Z,8.70
2023-06-19T01:25:47.431Z,7.10
2023-06-19T01:26:47.402Z,9.10
2023-06-19T01:27:47.359Z,8.10
2023-06-19T01:28:47.408Z,7.90
2023-06-19T01:29:47.374Z,9.00
2023-06-19T01:30:47.365Z,7.80
2023-06-19T01:31:47.321Z,8.40
2023-06-19T01:32:47.354Z,8.00
2023-06-19T01:33:47.317Z,8.50
2023-06-19T01:34:47.300Z,8.80
2023-06-19T01:35:47.264Z,7.50
2023-06-19T01:36:47.353Z,8.70
2023-06-19T01:37:47.322Z,8.40
2023-06-19T01:38:47.270Z,8.20
2023-06-19T01:39:47.227Z,7.20
2023-06-19T01:40:47.253Z,8.30
2023-06-19T01:41:47.261Z,8.70
2023-06-19T01:42:47.289Z,9.70
2023-06-19T01:43:47.180Z,8.00
2023-06-19T01:44:47.215Z,7.70
2023-06-19T01:45:47.170Z,8.20
2023-06-19T01:46:47.220Z,8.70
2023-06-19T01:47:47.224Z,8.10
2023-06-19T01:48:47.185Z,8.50
2023-06-19T01:49:47.118Z,7.70
2023-06-19T01:50:47.138Z,8.80
2023-06-19T01:51:47.114Z,8.70
2023-06-19T01:52:47.096Z,8.00
2023-06-19T01:53:47.099Z,8.80
2023-06-19T01:54:47.078Z,8.60
2023-06-19T01:55:47.103Z,7.30
2023-06-19T01:56:47.079Z,8.20
2023-06-19T01:57:47.031Z,9.30
2023-06-19T01:58:47.058Z,9.50
2023-06-19T01:59:47.046Z,9.70
2023-06-19T02:00:47.039Z,8.60
2023-06-19T02:01:46.967Z,9.60
2023-06-19T02:02:47.183Z,7.80
2023-06-19T02:03:47.085Z,8.00
2023-06-19T02:04:46.966Z,7.30
2023-06-19T02:05:46.995Z,8.50
2023-06-19T02:06:46.971Z,8.10
2023-06-19T02:07:46.947Z,9.60
2023-06-19T02:08:46.953Z,8.50
2023-06-19T02:09:46.894Z,8.20
2023-06-19T02:10:46.952Z,8.90
2023-06-19T02:11:46.868Z,9.10
2023-06-19T02:12:46.871Z,10.10
2023-06-19T02:13:46.909Z,7.50
2023-06-19T02:14:46.861Z,8.00
2023-06-19T02:15:46.850Z,8.60
2023-06-19T02:16:46.930Z,7.30
2023-06-19T02:17:46.848Z,8.50
2023-06-19T02:18:46.813Z,10.00
2023-06-19T02:19:46.788Z,8.60
2023-06-19T02:20:46.807Z,7.70
2023-06-19T02:21:46.788Z,7.40
2023-06-19T02:22:46.797Z,8.80
2023-06-19T02:23:46.771Z,7.10
2023-06-19T02:24:46.805Z,7.60
2023-06-19T02:25:46.735Z,8.20
2023-06-19T02:26:46.741Z,9.00
2023-06-19T02:27:46.704Z,8.50
2023-06-19T02:28:46.725Z,8.80
2023-06-19T02:29:46.681Z,8.60
2023-06-19T02:30:46.713Z,8.70
2023-06-19T02:31:46.656Z,9.10
2023-06-19T02:32:46.737Z,8.30
2023-06-19T02:33:46.640Z,8.70
2023-06-19T02:34:46.659Z,8.30
2023-06-19T02:35:46.607Z,8.30
2023-06-19T02:36:46.665Z,8.40
2023-06-19T02:37:46.583Z,8.10
2023-06-19T02:38:46.612Z,9.10
2023-06-19T02:39:46.613Z,8.10
2023-06-19T02:40:46.578Z,8.20
2023-06-19T02:41:46.590Z,8.40
2023-06-19T02:42:46.560Z,8.40
2023-06-19T02:43:46.526Z,9.60
2023-06-19T02:44:46.558Z,9.00
2023-06-19T02:45:46.546Z,8.80
2023-06-19T02:46:46.555Z,9.50
2023-06-19T02:47:46.514Z,10.20
2023-06-19T02:48:46.546Z,9.00
2023-06-19T02:49:46.476Z,9.10
2023-06-19T02:50:46.471Z,9.90
2023-06-19T02:51:46.477Z,8.50
2023-06-19T02:52:46.450Z,9.20
2023-06-19T02:53:46.421Z,9.10
2023-06-19T02:54:46.425Z,8.70
2023-06-19T02:55:46.378Z,8.80
2023-06-19T02:56:46.433Z,9.40
2023-06-19T02:57:46.353Z,8.00
2023-06-19T02:58:46.385Z,8.30
2023-06-19T02:59:46.342Z,8.70
2023-06-19T03:00:46.350Z,8.20
2023-06-19T03:01:46.344Z,9.70
2023-06-19T03:02:46.463Z,8.40
2023-06-19T03:03:46.332Z,9.20
2023-06-19T03:04:46.313Z,10.40
2023-06-19T03:05:46.260Z,9.10
2023-06-19T03:06:46.276Z,10.50
2023-06-19T03:07:46.258Z,8.20
2023-06-19T03:08:46.270Z,9.00
2023-06-19T03:09:46.220Z,9.00
2023-06-19T03:10:46.254Z,9.00
2023-06-19T03:11:46.207Z,8.90
2023-06-19T03:12:46.204Z,8.90
2023-06-19T03:13:46.177Z,10.00
2023-06-19T03:14:46.215Z,10.00
2023-06-19T03:15:46.192Z,8.10
2023-06-19T03:16:46.202Z,8.50
2023-06-19T03:17:46.187Z,7.60
2023-06-19T03:18:46.387Z,10.70
2023-06-19T03:19:46.125Z,8.80
2023-06-19T03:20:46.182Z,8.80
2023-06-19T03:21:46.091Z,9.00
2023-06-19T03:22:46.091Z,8.80
2023-06-19T03:23:46.085Z,9.80
2023-06-19T03:24:46.164Z,8.80
2023-06-19T03:25:46.054Z,8.20
2023-06-19T03:26:46.090Z,10.50
2023-06-19T03:27:46.018Z,8.90
2023-06-19T03:28:46.033Z,9.40
2023-06-19T03:29:46.001Z,8.70
2023-06-19T03:30:46.045Z,8.80
2023-06-19T03:31:46.002Z,9.20
2023-06-19T03:32:46.107Z,8.00
2023-06-19T03:33:45.994Z,9.40
2023-06-19T03:34:45.983Z,8.30
2023-06-19T03:35:45.933Z,8.90
2023-06-19T03:36:45.987Z,10.50
2023-06-19T03:37:45.904Z,9.30
2023-06-19T03:38:45.901Z,8.20
2023-06-19T03:39:45.879Z,8.40
2023-06-19T03:40:45.883Z,10.10
2023-06-19T03:41:45.926Z,8.80
2023-06-19T03:42:45.872Z,9.20
2023-06-19T03:43:45.850Z,9.10
2023-06-19T03:44:45.842Z,9.40
2023-06-19T03:45:45.881Z,9.80
2023-06-19T03:46:45.866Z,7.50
2023-06-19T03:47:45.885Z,8.40
2023-06-19T03:48:45.762Z,8.70
2023-06-19T03:49:45.803Z,8.70
2023-06-19T03:50:45.751Z,8.40
2023-06-19T03:51:45.783Z,9.00
2023-06-19T03:52:45.722Z,9.00
2023-06-19T03:53:45.792Z,8.50
2023-06-19T03:54:45.701Z,9.20
2023-06-19T03:55:45.706Z,8.00
2023-06-19T03:56:45.711Z,8.90
2023-06-19T03:57:45.694Z,9.70
2023-06-19T03:58:45.717Z,8.60
2023-06-19T03:59:45.656Z,9.40
2023-06-19T04:00:45.621Z,8.40
2023-06-19T04:01:45.682Z,9.20
2023-06-19T04:02:45.609Z,10.50
2023-06-19T04:03:45.629Z,9.00
2023-06-19T04:04:45.607Z,8.60
2023-06-19T04:05:45.587Z,9.00
2023-06-19T04:06:45.589Z,9.50
2023-06-19T04:07:45.571Z,8.80
2023-06-19T04:08:45.543Z,8.70
2023-06-19T04:09:45.533Z,7.90
2023-06-19T04:10:45.528Z,10.20
2023-06-19T04:11:45.578Z,9.40
2023-06-19T04:12:45.480Z,11.70
2023-06-19T04:13:45.508Z,8.80
2023-06-19T04:14:45.484Z,8.60
2023-06-19T04:15:46.960Z,8.60
2023-06-19T04:16:45.436Z,10.20
2023-06-19T04:17:45.464Z,10.20
2023-06-19T04:18:45.426Z,10.90
2023-06-19T04:19:45.437Z,8.20
2023-06-19T04:20:45.385Z,9.00
2023-06-19T04:21:45.431Z,10.30
2023-06-19T04:22:45.370Z,8.20
2023-06-19T04:23:45.364Z,8.90
2023-06-19T04:24:45.358Z,9.20
2023-06-19T04:25:45.354Z,8.80
2023-06-19T04:26:45.333Z,9.00
2023-06-19T04:27:45.359Z,9.30
2023-06-19T04:28:45.286Z,10.10
2023-06-19T04:29:45.304Z,9.20
2023-06-19T04:30:45.369Z,8.10
2023-06-19T04:31:45.273Z,10.70
2023-06-19T04:32:45.394Z,9.20
2023-06-19T04:33:45.295Z,9.40
2023-06-19T04:34:45.289Z,8.50
2023-06-19T04:35:45.226Z,8.90
2023-06-19T04:36:45.205Z,8.80
2023-06-19T04:37:45.219Z,8.50
2023-06-19T04:38:45.210Z,9.70
2023-06-19T04:39:45.184Z,8.90
2023-06-19T04:40:45.170Z,10.00
2023-06-19T04:41:45.156Z,9.10
2023-06-19T04:42:45.155Z,8.90
2023-06-19T04:43:45.133Z,10.30
2023-06-19T04:44:45.122Z,9.00
2023-06-19T04:45:45.118Z,9.30
2023-06-19T04:46:45.388Z,10.20
2023-06-19T04:47:53.284Z,8.10
2023-06-19T04:48:45.088Z,9.00
2023-06-19T04:49:45.098Z,9.10
2023-06-19T04:50:45.056Z,10.10
2023-06-19T04:51:45.083Z,7.60
2023-06-19T04:52:45.002Z,8.10
2023-06-19T04:53:45.021Z,8.50
2023-06-19T04:54:45.022Z,7.40
2023-06-19T04:55:45.031Z,7.30
2023-06-19T04:56:44.973Z,7.30
2023-06-19T04:57:44.979Z,6.70
2023-06-19T04:58:44.961Z,9.00
2023-06-19T04:59:44.983Z,8.80
2023-06-19T05:00:44.947Z,7.30
2023-06-19T05:01:44.999Z,6.60
2023-06-19T05:02:45.264Z,6.00
2023-06-19T05:03:44.947Z,8.20
2023-06-19T05:04:45.075Z,8.00
2023-06-19T05:05:44.882Z,6.80
2023-06-19T05:06:44.860Z,7.00
2023-06-19T05:07:44.911Z,7.10
2023-06-19T05:08:44.840Z,6.40
2023-06-19T05:09:44.852Z,7.10
2023-06-19T05:10:46.479Z,8.30
2023-06-19T05:11:44.817Z,6.90
2023-06-19T05:12:44.858Z,6.80
2023-06-19T05:13:44.805Z,6.90
2023-06-19T05:14:44.827Z,6.30
2023-06-19T05:15:44.843Z,7.10
2023-06-19T05:16:44.840Z,7.90
2023-06-19T05:17:44.836Z,7.70
2023-06-19T05:18:44.777Z,6.90
2023-06-19T05:19:44.732Z,6.30
2023-06-19T05:20:44.735Z,6.50
2023-06-19T05:21:44.696Z,6.80
2023-06-19T05:22:44.714Z,6.70
2023-06-19T05:23:44.673Z,6.20
2023-06-19T05:24:44.761Z,6.20
2023-06-19T05:25:44.647Z,7.70
2023-06-19T05:26:44.689Z,7.40
2023-06-19T05:27:44.639Z,6.60
2023-06-19T05:28:44.634Z,6.70
2023-06-19T05:29:44.632Z,6.40
2023-06-19T05:30:44.636Z,6.60
2023-06-19T05:31:44.611Z,6.20
2023-06-19T05:32:44.638Z,7.40
2023-06-19T05:33:44.575Z,7.40
2023-06-19T05:34:44.579Z,7.00
2023-06-19T05:35:44.565Z,7.80
2023-06-19T05:36:44.554Z,8.00
2023-06-19T05:37:44.527Z,6.50
2023-06-19T05:38:44.567Z,7.00
2023-06-19T05:39:44.497Z,7.50
2023-06-19T05:40:44.505Z,7.70
2023-06-19T05:41:44.492Z,6.40
2023-06-19T05:42:44.520Z,7.30
2023-06-19T05:43:44.501Z,8.20
2023-06-19T05:44:44.461Z,8.40
2023-06-19T05:45:44.521Z,7.10
2023-06-19T05:46:44.524Z,7.70
2023-06-19T05:47:44.477Z,8.30
2023-06-19T05:48:44.416Z,9.70
2023-06-19T05:49:44.390Z,6.70
2023-06-19T05:50:44.389Z,6.90
2023-06-19T05:51:44.387Z,7.80
2023-06-19T05:52:44.431Z,8.30
2023-06-19T05:53:44.348Z,7.60
2023-06-19T05:54:44.434Z,7.70
2023-06-19T05:55:44.318Z,7.80
2023-06-19T05:56:44.325Z,7.30
2023-06-19T05:57:44.316Z,8.10
2023-06-19T05:58:44.329Z,7.80
2023-06-19T05:59:44.280Z,8.50
2023-06-19T06:00:44.297Z,8.00
2023-06-19T06:01:44.316Z,7.60
2023-06-19T06:02:44.319Z,6.80
2023-06-19T06:03:44.232Z,6.40
2023-06-19T06:04:44.315Z,9.20
2023-06-19T06:05:44.208Z,6.60
2023-06-19T06:06:44.210Z,8.20
2023-06-19T06:07:44.194Z,7.30
2023-06-19T06:08:44.200Z,9.30
2023-06-19T06:09:44.221Z,7.50
2023-06-19T06:10:44.195Z,8.60
2023-06-19T06:11:44.145Z,7.70
2023-06-19T06:12:44.199Z,7.70
2023-06-19T06:13:44.108Z,7.50
2023-06-19T06:14:44.179Z,9.00
2023-06-19T06:15:44.117Z,8.20
2023-06-19T06:16:44.177Z,6.90
2023-06-19T06:17:44.176Z,8.20
2023-06-19T06:18:44.133Z,7.70
2023-06-19T06:19:50.092Z,8.90
2023-06-19T06:20:44.796Z,7.30
2023-06-19T06:21:45.685Z,7.30
2023-06-19T06:22:44.102Z,7.10
2023-06-19T06:23:44.001Z,6.20
2023-06-19T06:24:44.082Z,8.10
2023-06-19T06:25:43.983Z,7.40
2023-06-19T06:26:44.023Z,8.20
2023-06-19T06:27:43.995Z,8.30
2023-06-19T06:28:43.989Z,7.30
2023-06-19T06:29:43.978Z,6.90
2023-06-19T06:30:43.954Z,10.40
2023-06-19T06:31:43.914Z,8.20
2023-06-19T06:32:43.970Z,7.30
2023-06-19T06:33:43.916Z,6.90
2023-06-19T06:34:43.902Z,6.70
2023-06-19T06:35:43.865Z,7.40
2023-06-19T06:36:52.907Z,8.00
2023-06-19T06:37:43.846Z,6.60
2023-06-19T06:38:43.878Z,7.40
2023-06-19T06:39:43.821Z,6.70
2023-06-19T06:40:43.855Z,7.50
2023-06-19T06:41:43.794Z,7.00
2023-06-19T06:42:43.814Z,8.10
2023-06-19T06:43:43.775Z,8.80
2023-06-19T06:44:43.833Z,7.30
2023-06-19T06:45:44.005Z,6.70
2023-06-19T06:46:43.784Z,6.00
2023-06-19T06:47:43.784Z,6.70
2023-06-19T06:48:43.761Z,9.00
2023-06-19T06:49:43.708Z,8.50
2023-06-19T06:50:43.745Z,6.70
2023-06-19T06:51:43.685Z,7.70
2023-06-19T06:52:43.713Z,7.80
2023-06-19T06:53:43.669Z,9.10
2023-06-19T06:54:43.708Z,6.70
2023-06-19T06:55:43.675Z,7.20
2023-06-19T06:56:43.653Z,6.10
2023-06-19T06:57:43.634Z,6.80
2023-06-19T06:58:43.637Z,6.60
2023-06-19T06:59:43.616Z,6.70
2023-06-19T07:00:43.655Z,8.50
2023-06-19T07:01:43.619Z,7.70
2023-06-19T07:02:43.706Z,6.70
2023-06-19T07:03:43.655Z,8.20
2023-06-19T07:04:43.577Z,6.40
2023-06-19T07:05:43.538Z,6.80
2023-06-19T07:06:43.554Z,6.40
2023-06-19T07:07:43.542Z,6.70
2023-06-19T07:08:43.530Z,7.10
2023-06-19T07:09:43.514Z,6.40
2023-06-19T07:10:43.524Z,6.40
2023-06-19T07:11:43.516Z,7.00
2023-06-19T07:12:43.538Z,7.50
2023-06-19T07:13:43.460Z,6.50
2023-06-19T07:14:43.480Z,6.00
2023-06-19T07:15:43.459Z,6.70
2023-06-19T07:16:43.512Z,7.40
2023-06-19T07:17:43.585Z,6.00
2023-06-19T07:18:43.464Z,7.40
2023-06-19T07:19:43.417Z,7.50
2023-06-19T07:20:43.420Z,7.00
2023-06-19T07:21:43.393Z,6.30
2023-06-19T07:22:43.390Z,5.90
2023-06-19T07:23:43.397Z,7.30
2023-06-19T07:24:43.541Z,7.50
2023-06-19T07:25:43.342Z,7.00
2023-06-19T07:26:43.364Z,6.50
2023-06-19T07:27:43.338Z,6.20
2023-06-19T07:28:43.341Z,6.00
2023-06-19T07:29:43.341Z,5.70
2023-06-19T07:30:43.328Z,5.30
2023-06-19T07:31:43.272Z,6.00
2023-06-19T07:32:43.356Z,5.90
2023-06-19T07:33:43.258Z,8.10
2023-06-19T07:34:43.278Z,6.20
2023-06-19T07:35:43.273Z,6.30
2023-06-19T07:36:43.298Z,5.70
2023-06-19T07:37:43.209Z,6.00
2023-06-19T07:38:43.223Z,6.70
2023-06-19T07:39:43.209Z,6.50
2023-06-19T07:40:43.231Z,5.60
2023-06-19T07:41:43.192Z,7.20
2023-06-19T07:42:44.767Z,6.20
2023-06-19T07:43:43.149Z,6.90
2023-06-19T07:44:43.171Z,5.80
2023-06-19T07:45:43.196Z,6.30
2023-06-19T07:46:43.156Z,6.00
2023-06-19T07:47:43.163Z,6.30
2023-06-19T07:48:43.104Z,6.10
2023-06-19T07:49:43.110Z,5.40
2023-06-19T07:50:43.109Z,5.90
2023-06-19T07:51:43.100Z,5.00
2023-06-19T07:52:43.118Z,6.10
2023-06-19T07:53:43.024Z,6.10
2023-06-19T07:54:43.050Z,6.70
2023-06-19T07:55:43.006Z,5.30
2023-06-19T07:56:43.027Z,6.00
2023-06-19T07:57:42.991Z,5.90
2023-06-19T07:58:43.017Z,6.20
2023-06-19T07:59:42.966Z,5.80
2023-06-19T08:00:42.972Z,5.90
2023-06-19T08:01:42.962Z,6.70
2023-06-19T08:02:43.061Z,6.00
2023-06-19T08:03:42.980Z,6.10
2023-06-19T08:04:42.957Z,6.30
2023-06-19T08:05:42.898Z,5.60
2023-06-19T08:06:42.918Z,5.90
2023-06-19T08:07:42.873Z,6.40
2023-06-19T08:08:42.894Z,5.80
2023-06-19T08:09:42.891Z,7.50
2023-06-19T08:10:42.875Z,5.60
2023-06-19T08:11:42.829Z,5.10
2023-06-19T08:12:42.843Z,5.50
2023-06-19T08:13:42.817Z,8.00
2023-06-19T08:14:42.812Z,5.50
2023-06-19T08:15:42.824Z,5.80
2023-06-19T08:16:42.808Z,7.10
2023-06-19T08:17:42.789Z,5.60
2023-06-19T08:18:42.790Z,6.00
2023-06-19T08:19:42.754Z,6.40
2023-06-19T08:20:42.791Z,5.70
2023-06-19T08:21:42.748Z,6.50
2023-06-19T08:22:42.739Z,5.70
2023-06-19T08:23:42.712Z,5.10
2023-06-19T08:24:42.746Z,7.50
2023-06-19T08:25:42.688Z,5.20
2023-06-19T08:26:42.711Z,6.20
2023-06-19T08:27:42.719Z,5.30
2023-06-19T08:28:42.722Z,6.00
2023-06-19T08:29:42.637Z,4.90
2023-06-19T08:30:42.650Z,6.70
2023-06-19T08:31:42.614Z,4.90
2023-06-19T08:32:42.671Z,6.90
2023-06-19T08:33:42.628Z,6.00
2023-06-19T08:34:42.618Z,6.00
2023-06-19T08:35:42.578Z,5.80
2023-06-19T08:36:42.582Z,5.60
2023-06-19T08:37:42.554Z,5.40
2023-06-19T08:38:42.593Z,6.70
2023-06-19T08:39:42.525Z,7.10
2023-06-19T08:40:42.553Z,5.70
2023-06-19T08:41:42.497Z,5.60
2023-06-19T08:42:42.531Z,5.30
2023-06-19T08:43:42.484Z,5.80
2023-06-19T08:44:42.547Z,6.90
2023-06-19T08:45:42.475Z,5.60
2023-06-19T08:46:42.539Z,6.10
2023-06-19T08:47:42.482Z,5.90
2023-06-19T08:48:42.471Z,7.40
2023-06-19T08:49:42.424Z,5.70
2023-06-19T08:50:42.458Z,5.90
2023-06-19T08:51:42.405Z,5.70
2023-06-19T08:52:42.414Z,5.60
2023-06-19T08:53:42.390Z,5.20
2023-06-19T08:54:42.398Z,5.00
2023-06-19T08:55:42.386Z,5.30
2023-06-19T08:56:42.398Z,6.00
2023-06-19T08:57:42.333Z,4.90
2023-06-19T08:58:42.351Z,5.60
2023-06-19T08:59:42.351Z,5.60
2023-06-19T09:00:42.335Z,4.90
2023-06-19T09:01:42.326Z,4.80
2023-06-19T09:02:42.520Z,4.90
2023-06-19T09:03:42.364Z,5.40
2023-06-19T09:04:42.299Z,5.00
2023-06-19T09:05:42.773Z,5.20
2023-06-19T09:06:42.354Z,5.90
2023-06-19T09:07:42.259Z,6.20
2023-06-19T09:08:42.247Z,5.80
2023-06-19T09:09:42.204Z,5.40
2023-06-19T09:10:42.239Z,4.80
2023-06-19T09:11:42.204Z,7.10
2023-06-19T09:12:42.226Z,5.40
2023-06-19T09:13:42.168Z,5.60
2023-06-19T09:14:42.175Z,6.50
2023-06-19T09:15:42.145Z,5.40
2023-06-19T09:16:42.205Z,5.50
2023-06-19T09:17:42.191Z,5.30
2023-06-19T09:18:42.145Z,5.80
2023-06-19T09:19:42.103Z,5.40
2023-06-19T09:20:42.125Z,5.60
2023-06-19T09:21:42.082Z,6.40
2023-06-19T09:22:42.161Z,6.20
2023-06-19T09:23:42.054Z,5.00
2023-06-19T09:24:42.284Z,6.00
2023-06-19T09:25:42.030Z,5.10
2023-06-19T09:26:42.046Z,5.10
2023-06-19T09:27:42.051Z,5.80
2023-06-19T09:28:42.037Z,5.00
2023-06-19T09:29:41.998Z,6.30
2023-06-19T09:30:42.003Z,5.30
2023-06-19T09:31:41.972Z,6.80
2023-06-19T09:32:42.056Z,5.30
2023-06-19T09:33:42.049Z,5.40
2023-06-19T09:34:41.939Z,5.50
2023-06-19T09:35:41.948Z,4.90
2023-06-19T09:36:41.920Z,6.20
2023-06-19T09:37:41.924Z,6.30
2023-06-19T09:38:42.282Z,6.60
2023-06-19T09:39:41.941Z,5.30
2023-06-19T09:40:41.870Z,4.90
2023-06-19T09:41:41.887Z,4.90
2023-06-19T09:42:41.846Z,4.30
2023-06-19T09:43:41.861Z,5.40
2023-06-19T09:44:46.118Z,5.90
2023-06-19T09:45:41.863Z,5.50
2023-06-19T09:46:41.841Z,6.00
2023-06-19T09:47:41.900Z,5.90
2023-06-19T09:48:41.803Z,6.30
2023-06-19T09:49:41.793Z,5.10
2023-06-19T09:50:41.794Z,6.40
2023-06-19T09:51:41.777Z,5.10
2023-06-19T09:52:41.748Z,5.10
2023-06-19T09:53:41.870Z,5.40
2023-06-19T09:54:41.721Z,6.90
2023-06-19T09:55:41.768Z,6.70
2023-06-19T09:56:41.702Z,5.30
2023-06-19T09:57:41.715Z,6.60
2023-06-19T09:58:41.682Z,5.30
2023-06-19T09:59:41.686Z,5.00
2023-06-19T10:00:41.663Z,5.10
2023-06-19T10:01:41.694Z,6.30
2023-06-19T10:02:41.717Z,5.30
2023-06-19T10:03:41.715Z,4.90
2023-06-19T10:04:41.612Z,6.60
2023-06-19T10:05:41.626Z,6.30
2023-06-19T10:06:41.594Z,5.20
2023-06-19T10:07:41.630Z,5.90
2023-06-19T10:08:41.585Z,6.30
2023-06-19T10:09:41.587Z,4.80
2023-06-19T10:10:41.559Z,5.50
2023-06-19T10:11:41.568Z,5.80
2023-06-19T10:12:41.535Z,5.80
2023-06-19T10:13:41.567Z,5.50
2023-06-19T10:14:41.512Z,5.90
2023-06-19T10:15:41.534Z,5.10
2023-06-19T10:16:41.528Z,5.80
2023-06-19T10:17:41.580Z,5.50
2023-06-19T10:18:41.499Z,5.50
2023-06-19T10:19:41.490Z,5.70
2023-06-19T10:20:46.851Z,4.90
2023-06-19T10:21:41.459Z,4.90
2023-06-19T10:22:41.429Z,5.30
2023-06-19T10:23:41.466Z,5.00
2023-06-19T10:24:41.562Z,5.30
2023-06-19T10:25:41.425Z,5.60
2023-06-19T10:26:41.409Z,5.50
2023-06-19T10:27:43.178Z,5.80
2023-06-19T10:28:41.438Z,5.60
2023-06-19T10:29:42.445Z,4.60
2023-06-19T10:30:41.367Z,5.90
2023-06-19T10:31:41.364Z,6.80
2023-06-19T10:32:41.362Z,5.20
2023-06-19T10:33:41.604Z,5.10
2023-06-19T10:34:41.312Z,6.00
2023-06-19T10:35:41.375Z,5.80
2023-06-19T10:36:41.294Z,6.20
2023-06-19T10:37:41.305Z,6.40
2023-06-19T10:38:41.287Z,5.80
2023-06-19T10:39:41.278Z,5.50
2023-06-19T10:40:41.264Z,5.50
2023-06-19T10:41:41.269Z,7.30
2023-06-19T10:42:41.238Z,4.70
2023-06-19T10:43:41.241Z,5.20
2023-06-19T10:44:41.236Z,6.40
2023-06-19T10:45:41.269Z,6.30
2023-06-19T10:46:41.185Z,6.10
2023-06-19T10:47:41.244Z,4.30
2023-06-19T10:48:41.179Z,4.60
2023-06-19T10:49:41.169Z,5.70
2023-06-19T10:50:41.161Z,5.30
2023-06-19T10:51:41.181Z,5.10
2023-06-19T10:52:41.107Z,5.00
2023-06-19T10:53:41.142Z,5.40
2023-06-19T10:54:41.098Z,4.80
2023-06-19T10:55:41.096Z,4.80
2023-06-19T10:56:41.121Z,5.70
2023-06-19T10:57:41.100Z,5.10
2023-06-19T10:58:41.044Z,5.50
2023-06-19T10:59:41.059Z,5.10
2023-06-19T11:00:41.030Z,5.50
2023-06-19T11:01:41.147Z,5.80
2023-06-19T11:02:41.108Z,5.10
2023-06-19T11:03:41.050Z,5.70
2023-06-19T11:04:40.985Z,5.20
2023-06-19T11:05:40.993Z,5.40
2023-06-19T11:06:40.991Z,4.60
2023-06-19T11:07:40.984Z,5.50
2023-06-19T11:08:40.951Z,5.90
2023-06-19T11:09:43.169Z,5.80
2023-06-19T11:10:40.909Z,5.10
2023-06-19T11:11:40.942Z,4.60
2023-06-19T11:12:40.897Z,5.00
2023-06-19T11:13:40.916Z,5.50
2023-06-19T11:14:40.917Z,6.20
2023-06-19T11:15:40.912Z,4.70
2023-06-19T11:16:40.905Z,5.20
2023-06-19T11:17:40.923Z,4.60
2023-06-19T11:18:40.869Z,4.80
2023-06-19T11:19:40.842Z,6.20
2023-06-19T11:20:40.822Z,5.20
2023-06-19T11:21:40.839Z,5.40
2023-06-19T11:22:40.791Z,5.90
2023-06-19T11:23:40.804Z,7.00
2023-06-19T11:24:40.828Z,4.70
2023-06-19T11:25:40.786Z,5.40
2023-06-19T11:26:40.752Z,5.40
2023-06-19T11:27:40.797Z,5.40
2023-06-19T11:28:41.424Z,5.20
2023-06-19T11:29:40.751Z,4.80
2023-06-19T11:30:40.753Z,5.10
2023-06-19T11:31:40.728Z,4.90
2023-06-19T11:32:40.709Z,4.60
2023-06-19T11:33:40.704Z,5.90
2023-06-19T11:34:40.687Z,5.30
2023-06-19T11:35:40.666Z,5.00
2023-06-19T11:36:40.667Z,4.90
2023-06-19T11:37:40.653Z,4.70
2023-06-19T11:38:40.622Z,5.80
2023-06-19T11:39:40.632Z,5.60
2023-06-19T11:40:40.591Z,5.60
2023-06-19T11:41:40.711Z,5.80
2023-06-19T11:42:40.592Z,5.70
2023-06-19T11:43:40.590Z,4.40
2023-06-19T11:44:40.545Z,5.00
2023-06-19T11:45:40.567Z,6.70
2023-06-19T11:46:40.551Z,4.80
2023-06-19T11:47:40.553Z,5.00
2023-06-19T11:48:40.496Z,4.90
2023-06-19T11:49:40.516Z,5.10
2023-06-19T11:50:40.497Z,5.40
2023-06-19T11:51:40.526Z,4.90
2023-06-19T11:52:40.470Z,5.00
2023-06-19T11:53:40.469Z,5.50
2023-06-19T11:54:40.441Z,4.80
2023-06-19T11:55:40.458Z,5.80
2023-06-19T11:56:40.433Z,5.40
2023-06-19T11:57:40.457Z,5.50
2023-06-19T11:58:40.415Z,5.50
2023-06-19T11:59:40.434Z,4.60
2023-06-19T12:00:40.383Z,4.80
2023-06-19T12:01:40.419Z,4.90
2023-06-19T12:02:40.509Z,5.80
2023-06-19T12:03:41.678Z,5.90
2023-06-19T12:04:40.449Z,5.20
2023-06-19T12:05:40.347Z,4.60
2023-06-19T12:06:40.328Z,4.80
2023-06-19T12:07:40.317Z,5.00
2023-06-19T12:08:40.328Z,5.10
2023-06-19T12:09:40.305Z,4.80
2023-06-19T12:10:40.273Z,6.00
2023-06-19T12:11:40.306Z,5.30
2023-06-19T12:12:40.247Z,6.80
2023-06-19T12:13:40.259Z,5.80
2023-06-19T12:14:40.253Z,5.60
2023-06-19T12:15:40.263Z,7.00
2023-06-19T12:16:40.264Z,4.50
2023-06-19T12:17:40.249Z,5.50
2023-06-19T12:18:40.178Z,4.80
2023-06-19T12:19:40.188Z,5.40
2023-06-19T12:20:46.733Z,5.70
2023-06-19T12:21:43.162Z,4.60
2023-06-19T12:22:40.149Z,5.30
2023-06-19T12:23:40.145Z,4.90
2023-06-19T12:24:40.265Z,5.10
2023-06-19T12:25:40.156Z,6.00
2023-06-19T12:26:40.097Z,5.30
2023-06-19T12:27:40.109Z,5.20
2023-06-19T12:28:40.071Z,4.30
2023-06-19T12:29:40.086Z,4.80
2023-06-19T12:30:40.096Z,5.80
2023-06-19T12:31:40.158Z,4.80
2023-06-19T12:32:40.117Z,5.50
2023-06-19T12:33:40.074Z,5.20
2023-06-19T12:34:40.024Z,4.80
2023-06-19T12:35:40.054Z,6.00
2023-06-19T12:36:39.985Z,5.00
2023-06-19T12:37:40.041Z,5.30
2023-06-19T12:38:39.964Z,6.20
2023-06-19T12:39:39.969Z,5.80
2023-06-19T12:40:39.963Z,5.30
2023-06-19T12:41:39.971Z,4.30
2023-06-19T12:42:39.951Z,6.60
2023-06-19T12:43:39.941Z,5.70
2023-06-19T12:44:39.917Z,4.90
2023-06-19T12:45:39.905Z,5.80
2023-06-19T12:46:39.995Z,5.30
2023-06-19T12:47:39.906Z,5.00
2023-06-19T12:48:39.911Z,4.60
2023-06-19T12:49:39.896Z,4.80
2023-06-19T12:50:39.899Z,6.20
2023-06-19T12:51:39.848Z,5.50
2023-06-19T12:52:39.816Z,5.40
2023-06-19T12:53:39.827Z,4.90
2023-06-19T12:54:39.810Z,7.00
2023-06-19T12:55:52.456Z,5.60
2023-06-19T12:56:39.776Z,6.60
2023-06-19T12:57:39.794Z,5.30
2023-06-19T12:58:39.757Z,4.70
2023-06-19T12:59:39.780Z,5.30
2023-06-19T13:00:39.758Z,5.40
2023-06-19T13:01:39.783Z,4.40
2023-06-19T13:02:39.782Z,5.20
2023-06-19T13:03:39.880Z,5.30
2023-06-19T13:04:39.697Z,4.60
2023-06-19T13:05:39.723Z,4.70
2023-06-19T13:06:39.711Z,4.90
2023-06-19T13:07:39.728Z,4.30
2023-06-19T13:08:39.654Z,5.80
2023-06-19T13:09:39.667Z,4.90
2023-06-19T13:10:39.626Z,5.20
2023-06-19T13:11:39.685Z,5.70
2023-06-19T13:12:39.640Z,5.90
2023-06-19T13:13:39.629Z,4.70
2023-06-19T13:14:39.605Z,4.60
2023-06-19T13:15:39.661Z,4.70
2023-06-19T13:17:39.657Z,5.00
2023-06-19T13:18:39.568Z,4.90